CYHU/YHU METAR and TAF weather

Enter ICAO airport designator
Station Type Date Time Source
CYHU METAR 2020/02/29 03:16 UTC NOAA

CYHU 290316Z AUTO 26007KT 9SM OVC042 M09/M14 A2971 RMK SLP065


Station Type Date Time Source
CYHU Decoded METAR 2020/02/29 03:16 UTC NOAA

Saint Hubert Airport , Canada (CYHU) 45-31N 073-25W
Feb 28, 2020 - 10:16 PM EST / 2020.02.29 0316 UTC
Wind: from the W (260 degrees) at 8 MPH (7 KT):0
Visibility: 9 mile(s):0
Sky conditions: overcast
Temperature: 15 F (-9 C)
Windchill: 5 F (-15 C):1
Dew Point: 6 F (-14 C)
Relative Humidity: 67%
Pressure (altimeter): 29.71 in. Hg (1006 hPa)
ob: CYHU 290316Z AUTO 26007KT 9SM OVC042 M09/M14 A2971 RMK SLP065
cycle: 3

Station Type Date Time Source
CYHU TAF 2020/02/28 18:42 UTC NOAA

TAF TAF CYHU 281738Z 2818/2918 26018G28KT P6SM DRSN FEW020 BKN030 OVC080
TEMPO 2818/2821 5SM -SHSN BLSN
FM282100 28012G22KT P6SM BKN030 BKN080
TEMPO 2821/2903 3SM -SHSN OVC020 PROB30 2823/2903 11/2SM -SHSN
FM290300 VRB03KT P6SM BKN040 BKN100
TEMPO 2903/2910 P6SM -SN
FM291000 29006KT P6SM BKN060 BKN100
FM291500 26012KT P6SM -SHSN BKN020 BKN050 OVC080
FM291700 25015KT 5SM -SHSN OVC025
RMK FCST BASED ON AUTO OBS. NXT FCST BY 290000Z

Example: see airport list